createdAt,value
2018-08-16T00:00:48.887Z,4.66
2018-08-16T00:06:49.476Z,4.15
2018-08-16T00:10:50.096Z,4.29
2018-08-16T00:16:50.749Z,5.63
2018-08-16T00:20:51.375Z,3.77
2018-08-16T00:22:51.903Z,4.37
2018-08-16T00:26:52.554Z,4.83
2018-08-16T00:32:53.086Z,4.39
2018-08-16T00:36:54.410Z,4.53
2018-08-16T00:42:55.240Z,5.82
2018-08-16T00:46:55.854Z,5.11
2018-08-16T00:52:57.978Z,4.31
2018-08-16T00:52:58.056Z,4.23
2018-08-16T00:58:58.661Z,5.13
2018-08-16T01:02:59.218Z,5.05
2018-08-16T01:08:59.758Z,4.02
2018-08-16T01:15:00.318Z,4.51
2018-08-16T01:19:00.900Z,5
2018-08-16T01:25:01.548Z,3.41
2018-08-16T01:29:02.189Z,5.04
2018-08-16T01:35:02.779Z,6.49
2018-08-16T01:41:03.420Z,4.85
2018-08-16T01:45:04.032Z,5
2018-08-16T01:51:04.538Z,4.74
2018-08-16T01:55:05.138Z,4.69
2018-08-16T01:57:05.625Z,5.64
2018-08-16T02:01:06.231Z,4.88
2018-08-16T02:07:06.825Z,4.44
2018-08-16T02:11:07.408Z,4.27
2018-08-16T02:17:07.961Z,4.54
2018-08-16T02:21:08.616Z,4.62
2018-08-16T02:23:09.195Z,3.96
2018-08-16T02:27:09.665Z,4.07
2018-08-16T02:33:10.266Z,4.42
2018-08-16T02:37:10.807Z,4.16
2018-08-16T02:43:11.409Z,3.87
2018-08-16T02:47:11.967Z,4.23
2018-08-16T02:49:12.419Z,3.81
2018-08-16T02:53:13.020Z,4.44
2018-08-16T02:59:13.556Z,3.16
2018-08-16T03:03:14.149Z,3.48
2018-08-16T03:09:14.880Z,4.01
2018-08-16T03:15:15.919Z,3.68
2018-08-16T03:19:16.520Z,3.52
2018-08-16T03:25:17.077Z,4.24
2018-08-16T03:29:17.725Z,3.58
2018-08-16T03:35:18.373Z,3.64
2018-08-16T03:41:18.950Z,4.81
2018-08-16T03:45:19.932Z,4.01
2018-08-16T03:51:20.531Z,3.97
2018-08-16T03:55:21.230Z,4.18
2018-08-16T03:57:21.720Z,3.89
2018-08-16T04:01:22.326Z,3.47
2018-08-16T04:07:22.892Z,4.28
2018-08-16T04:11:23.528Z,4.63
2018-08-16T04:17:24.101Z,4.25
2018-08-16T04:21:24.690Z,3.67
2018-08-16T04:23:25.211Z,4.35
2018-08-16T04:27:25.757Z,3.84
2018-08-16T04:33:26.317Z,4.36
2018-08-16T04:37:26.883Z,3.96
2018-08-16T04:43:27.374Z,3.69
2018-08-16T04:47:28.015Z,4.45
2018-08-16T04:49:29.258Z,4.1
2018-08-16T04:53:29.950Z,4.05
2018-08-16T04:59:30.491Z,5.05
2018-08-16T05:03:31.015Z,4.58
2018-08-16T05:09:31.532Z,5.37
2018-08-16T05:15:32.416Z,6.06
2018-08-16T05:19:32.942Z,4.81
2018-08-16T05:25:33.450Z,4.78
2018-08-16T05:29:34.010Z,4.69
2018-08-16T05:35:34.711Z,4.42
2018-08-16T05:41:35.258Z,5.39
2018-08-16T05:45:36.586Z,4.27
2018-08-16T05:51:37.175Z,6.15
2018-08-16T05:55:37.833Z,4.83
2018-08-16T05:57:38.333Z,5.41
2018-08-16T06:07:40.346Z,4.25
2018-08-16T06:07:40.347Z,4.62
2018-08-16T06:11:40.977Z,5.87
2018-08-16T06:17:41.511Z,4.81
2018-08-16T06:21:42.124Z,4.56
2018-08-16T06:23:42.657Z,6.92
2018-08-16T06:27:43.252Z,4.68
2018-08-16T06:33:43.780Z,4.64
2018-08-16T06:37:44.427Z,4.64
2018-08-16T06:43:45.085Z,3.57
2018-08-16T06:47:45.547Z,3.86
2018-08-16T06:49:46.087Z,6.36
2018-08-16T06:53:47.378Z,4.83
2018-08-16T06:59:48.029Z,4.39
2018-08-16T07:03:48.640Z,3.84
2018-08-16T07:09:49.232Z,3.1
2018-08-16T07:15:49.798Z,4.9
2018-08-16T07:19:50.400Z,4.94
2018-08-16T07:25:50.881Z,4.01
2018-08-16T07:29:51.542Z,4.77
2018-08-16T07:35:52.107Z,3.98
2018-08-16T07:41:52.723Z,3.88
2018-08-16T07:45:53.495Z,4.06
2018-08-16T07:51:53.922Z,5.34
2018-08-16T07:55:54.526Z,4.59
2018-08-16T07:57:55.118Z,4.33
2018-08-16T08:01:55.778Z,4.49
2018-08-16T08:07:56.384Z,3.98
2018-08-16T08:11:56.963Z,4.18
2018-08-16T08:17:57.621Z,4.32
2018-08-16T08:21:58.285Z,5.18
2018-08-16T08:23:58.821Z,3.36
2018-08-16T08:27:59.364Z,3.93
2018-08-16T08:33:59.918Z,3.59
2018-08-16T08:38:00.435Z,3.28
2018-08-16T08:44:00.980Z,4.45
2018-08-16T08:48:01.591Z,3.89
2018-08-16T08:54:07.680Z,4.03
2018-08-16T08:54:07.692Z,3.79
2018-08-16T09:00:08.272Z,4.13
2018-08-16T09:04:08.802Z,4.98
2018-08-16T09:10:09.375Z,4.4
2018-08-16T09:16:10.004Z,3.98
2018-08-16T09:20:10.676Z,3.66
2018-08-16T09:26:11.190Z,3.64
2018-08-16T09:30:12.109Z,4.02
2018-08-16T09:36:12.685Z,4.54
2018-08-16T09:42:13.354Z,3.79
2018-08-16T09:46:13.913Z,4.13
2018-08-16T09:52:14.516Z,4.01
2018-08-16T09:56:15.333Z,4.95
2018-08-16T10:02:16.006Z,3.76
2018-08-16T10:08:16.532Z,3.37
2018-08-16T10:12:17.184Z,6.26
2018-08-16T10:18:17.767Z,3.33
2018-08-16T10:22:18.394Z,3.95
2018-08-16T10:24:18.865Z,3.25
2018-08-16T10:28:19.447Z,3.41
2018-08-16T10:34:19.978Z,3.22
2018-08-16T10:38:20.569Z,3.5
2018-08-16T10:44:21.187Z,3.59
2018-08-16T10:48:21.766Z,3.01
2018-08-16T10:50:22.322Z,4.01
2018-08-16T10:54:22.885Z,4.17
2018-08-16T11:00:23.748Z,3.14
2018-08-16T11:04:24.290Z,3.57
2018-08-16T11:10:24.964Z,3.35
2018-08-16T11:16:25.487Z,3.28
2018-08-16T11:20:26.207Z,4.68
2018-08-16T11:26:26.722Z,3.43
2018-08-16T11:30:28.189Z,3.74
2018-08-16T11:36:28.913Z,3.89
2018-08-16T11:42:29.459Z,4.22
2018-08-16T11:46:30.157Z,3.27
2018-08-16T11:52:30.646Z,4.06
2018-08-16T11:56:31.218Z,3.93
2018-08-16T11:58:31.724Z,3.87
2018-08-16T12:02:32.294Z,3.27
2018-08-16T12:08:32.914Z,3.74
2018-08-16T12:12:33.592Z,4.35
2018-08-16T12:18:34.289Z,4.23
2018-08-16T12:22:34.962Z,3.88
2018-08-16T12:24:35.443Z,3.48
2018-08-16T12:28:35.952Z,3.57
2018-08-16T12:34:36.467Z,4.29
2018-08-16T12:38:37.080Z,4.11
2018-08-16T12:44:37.692Z,3.75
2018-08-16T12:50:38.305Z,3.71
2018-08-16T12:54:38.833Z,4.54
2018-08-16T13:00:39.756Z,3.06
2018-08-16T13:04:40.360Z,3.45
2018-08-16T13:10:41.157Z,4.15
2018-08-16T13:16:41.741Z,4.25
2018-08-16T13:20:42.346Z,4.06
2018-08-16T13:26:42.947Z,3.97
2018-08-16T13:30:43.545Z,6.12
2018-08-16T13:32:44.077Z,3.66
2018-08-16T13:36:44.744Z,4.1
2018-08-16T13:42:45.478Z,3.59
2018-08-16T13:46:46.090Z,4.2
2018-08-16T13:52:46.675Z,4.57
2018-08-16T13:56:47.271Z,5.05
2018-08-16T13:58:47.806Z,4.29
2018-08-16T14:02:48.349Z,3.72
2018-08-16T14:08:48.940Z,3.93
2018-08-16T14:12:49.605Z,3.9
2018-08-16T14:18:50.133Z,4.27
2018-08-16T14:24:50.766Z,4.48
2018-08-16T14:28:51.444Z,4.45
2018-08-16T14:34:51.973Z,4.82
2018-08-16T14:38:52.780Z,5.27
2018-08-16T14:44:53.184Z,4.68
2018-08-16T14:50:53.829Z,3.69
2018-08-16T14:54:54.392Z,5.21
2018-08-16T15:00:55.030Z,4.3
2018-08-16T15:04:55.635Z,4.18
2018-08-16T15:06:56.246Z,3.96
2018-08-16T15:10:56.823Z,3.94
2018-08-16T15:16:57.425Z,4.35
2018-08-16T15:20:58.030Z,4.71
2018-08-16T15:26:58.941Z,3.39
2018-08-16T15:30:59.553Z,3.9
2018-08-16T15:33:00.091Z,5.38
2018-08-16T15:37:00.728Z,4.08
2018-08-16T15:43:01.273Z,3.64
2018-08-16T15:47:01.817Z,4.42
2018-08-16T15:53:02.473Z,4.13
2018-08-16T15:59:03.171Z,3.51
2018-08-16T16:03:03.715Z,3.44
2018-08-16T16:09:04.330Z,3.41
2018-08-16T16:13:04.918Z,4.52
2018-08-16T16:19:05.623Z,4.9
2018-08-16T16:25:06.295Z,3.71
2018-08-16T16:29:06.891Z,3.98
2018-08-16T16:35:07.597Z,3.85
2018-08-16T16:39:08.173Z,4.61
2018-08-16T16:41:08.731Z,3.63
2018-08-16T16:45:09.667Z,4.23
2018-08-16T16:51:10.123Z,4.76
2018-08-16T16:55:10.763Z,4.13
2018-08-16T17:01:11.295Z,5.69
2018-08-16T17:05:11.874Z,4.61
2018-08-16T17:07:12.459Z,4.17
2018-08-16T17:11:13.045Z,4.35
2018-08-16T17:17:13.760Z,3.72
2018-08-16T17:21:14.478Z,4.38
2018-08-16T17:27:15.215Z,5.03
2018-08-16T17:31:15.870Z,5.13
2018-08-16T17:33:16.368Z,3.79
2018-08-16T17:37:17.026Z,3.8
2018-08-16T17:43:17.646Z,5
2018-08-16T17:47:18.287Z,4.26
2018-08-16T17:53:18.975Z,3.87
2018-08-16T17:59:19.763Z,4.94
2018-08-16T18:03:20.235Z,4.63
2018-08-16T18:09:20.911Z,4.54
2018-08-16T18:13:21.584Z,4.51
2018-08-16T18:19:22.232Z,4.74
2018-08-16T18:25:22.944Z,4.87
2018-08-16T18:29:23.698Z,5.35
2018-08-16T18:35:24.173Z,4.48
2018-08-16T18:39:24.802Z,5.5
2018-08-16T18:41:25.365Z,4.55
2018-08-16T18:45:26.654Z,6.6
2018-08-16T18:51:27.168Z,4.59
2018-08-16T18:55:27.794Z,5.05
2018-08-16T19:01:28.364Z,5.07
2018-08-16T19:05:29.084Z,5.13
2018-08-16T19:07:29.668Z,5.53
2018-08-16T19:11:30.268Z,6.33
2018-08-16T19:17:30.717Z,8.71
2018-08-16T19:21:31.319Z,8.98
2018-08-16T19:27:32.051Z,9.37
2018-08-16T19:33:32.697Z,8.07
2018-08-16T19:37:33.353Z,7.81
2018-08-16T19:43:33.986Z,6.87
2018-08-16T19:47:34.592Z,6.82
2018-08-16T19:53:35.153Z,5.66
2018-08-16T19:59:35.679Z,5.6
2018-08-16T20:03:36.367Z,6.41
2018-08-16T20:09:36.963Z,4.74
2018-08-16T20:13:37.588Z,5.26
2018-08-16T20:15:38.195Z,4.68
2018-08-16T20:19:38.783Z,5.17
2018-08-16T20:25:39.428Z,3.94
2018-08-16T20:29:39.927Z,5.77
2018-08-16T20:35:40.462Z,5.05
2018-08-16T20:39:41.071Z,5.41
2018-08-16T20:41:41.650Z,5.48
2018-08-16T20:45:42.248Z,5.5
2018-08-16T20:51:42.854Z,4.86
2018-08-16T20:55:43.319Z,4.86
2018-08-16T21:01:43.960Z,5.08
2018-08-16T21:05:44.553Z,4.19
2018-08-16T21:07:45.171Z,5.7
2018-08-16T21:11:45.780Z,5.57
2018-08-16T21:17:46.399Z,5.67
2018-08-16T21:21:47.160Z,5.02
2018-08-16T21:27:47.738Z,5.2
2018-08-16T21:33:48.234Z,6.29
2018-08-16T21:37:48.907Z,5.22
2018-08-16T21:43:49.532Z,4.43
2018-08-16T21:47:50.116Z,4.73
2018-08-16T21:53:50.762Z,5.6
2018-08-16T21:59:51.372Z,5.13
2018-08-16T22:03:51.993Z,5.59
2018-08-16T22:09:52.636Z,6.42
2018-08-16T22:13:53.246Z,5.61
2018-08-16T22:15:53.812Z,5.1
2018-08-16T22:19:54.431Z,6.27
2018-08-16T22:25:54.973Z,5.53
2018-08-16T22:29:55.558Z,5.46
2018-08-16T22:35:56.233Z,6.37
2018-08-16T22:39:56.972Z,5.9
2018-08-16T22:41:57.532Z,6.06
2018-08-16T22:45:58.148Z,5.92
2018-08-16T22:51:58.708Z,6.15
2018-08-16T22:55:59.341Z,5.99
2018-08-16T23:01:59.902Z,6.38
2018-08-16T23:08:00.465Z,6.33
2018-08-16T23:12:01.045Z,6.17
2018-08-16T23:18:01.625Z,6.49
2018-08-16T23:22:02.240Z,5.56
2018-08-16T23:28:02.813Z,6.45
2018-08-16T23:34:03.386Z,4.62
2018-08-16T23:38:03.945Z,5.22
2018-08-16T23:44:04.561Z,5.65
2018-08-16T23:48:05.182Z,5.8
2018-08-16T23:50:05.790Z,5.35
2018-08-16T23:54:06.380Z,5
